createdAt,value
2023-07-28T00:02:07.626Z,4.10
2023-07-28T00:04:36.870Z,5.60
2023-07-28T00:07:04.993Z,3.20
2023-07-28T00:09:33.058Z,3.97
2023-07-28T00:12:01.350Z,3.97
2023-07-28T00:14:29.919Z,3.27
2023-07-28T00:16:59.162Z,3.97
2023-07-28T00:19:28.474Z,3.33
2023-07-28T00:21:57.288Z,4.10
2023-07-28T00:24:25.272Z,3.63
2023-07-28T00:26:53.228Z,4.90
2023-07-28T00:29:21.175Z,4.30
2023-07-28T00:31:49.174Z,4.73
2023-07-28T00:34:17.142Z,5.83
2023-07-28T00:36:47.768Z,5.67
2023-07-28T00:39:15.828Z,5.10
2023-07-28T00:41:43.705Z,6.73
2023-07-28T00:44:11.643Z,6.50
2023-07-28T00:46:39.645Z,6.50
2023-07-28T00:49:07.644Z,7.47
2023-07-28T00:51:35.935Z,7.90
2023-07-28T00:54:06.295Z,7.43
2023-07-28T00:56:34.589Z,7.17
2023-07-28T00:59:03.085Z,7.47
2023-07-28T01:01:31.066Z,7.57
2023-07-28T01:04:00.111Z,6.97
2023-07-28T01:06:33.044Z,9.00
2023-07-28T01:09:05.719Z,6.53
2023-07-28T01:11:34.100Z,6.03
2023-07-28T01:14:04.133Z,6.27
2023-07-28T01:16:32.112Z,5.13
2023-07-28T01:19:00.133Z,5.70
2023-07-28T01:21:31.283Z,7.40
2023-07-28T01:24:06.437Z,8.13
2023-07-28T01:26:37.133Z,4.90
2023-07-28T01:29:05.994Z,7.47
2023-07-28T01:31:33.945Z,5.50
2023-07-28T01:34:01.988Z,5.17
2023-07-28T01:36:30.009Z,4.73
2023-07-28T01:38:58.018Z,5.30
2023-07-28T01:41:26.057Z,5.77
2023-07-28T01:43:56.786Z,6.10
2023-07-28T01:46:25.221Z,8.90
2023-07-28T01:48:53.058Z,6.53
2023-07-28T01:51:20.980Z,6.27
2023-07-28T01:53:48.966Z,16.77
2023-07-28T01:56:17.017Z,4.67
2023-07-28T01:58:44.999Z,12.10
2023-07-28T02:01:16.051Z,5.80
2023-07-28T02:03:43.973Z,5.30
2023-07-28T02:06:11.888Z,5.67
2023-07-28T02:08:39.787Z,5.67
2023-07-28T02:11:07.760Z,8.23
2023-07-28T02:13:35.715Z,9.10
2023-07-28T02:16:05.808Z,7.10
2023-07-28T02:18:36.240Z,6.20
2023-07-28T02:21:04.176Z,6.57
2023-07-28T02:23:32.271Z,6.00
2023-07-28T02:26:00.513Z,8.07
2023-07-28T02:28:28.625Z,6.27
2023-07-28T02:30:58.553Z,9.27
2023-07-28T02:33:26.669Z,7.27
2023-07-28T02:35:55.969Z,8.90
2023-07-28T02:38:23.908Z,7.27
2023-07-28T02:40:51.979Z,7.80
2023-07-28T02:43:19.858Z,7.87
2023-07-28T02:45:50.472Z,10.60
2023-07-28T02:48:18.299Z,11.13
2023-07-28T02:50:48.287Z,10.80
2023-07-28T02:53:17.783Z,10.23
2023-07-28T02:55:46.088Z,8.53
2023-07-28T02:58:14.606Z,9.87
2023-07-28T03:00:43.325Z,10.27
2023-07-28T03:03:13.284Z,12.13
2023-07-28T03:05:42.266Z,8.90
2023-07-28T03:08:25.339Z,7.70
2023-07-28T03:10:58.878Z,12.67
2023-07-28T03:13:26.878Z,9.90
2023-07-28T03:15:54.859Z,9.97
2023-07-28T03:18:24.532Z,12.07
2023-07-28T03:20:52.489Z,10.03
2023-07-28T03:23:20.471Z,10.73
2023-07-28T03:25:49.686Z,9.93
2023-07-28T03:28:17.621Z,8.53
2023-07-28T03:30:45.643Z,10.60
2023-07-28T03:33:16.601Z,10.40
2023-07-28T03:35:44.532Z,9.77
2023-07-28T03:38:13.259Z,8.50
2023-07-28T03:40:42.963Z,8.10
2023-07-28T03:43:12.248Z,8.23
2023-07-28T03:45:40.165Z,8.60
2023-07-28T03:48:08.183Z,9.53
2023-07-28T03:50:36.074Z,9.67
2023-07-28T03:53:04.057Z,10.70
2023-07-28T03:55:31.985Z,9.57
2023-07-28T03:57:59.974Z,8.17
2023-07-28T04:00:29.400Z,10.07
2023-07-28T04:02:57.420Z,11.03
2023-07-28T04:05:25.415Z,8.77
2023-07-28T04:07:53.507Z,10.83
2023-07-28T04:10:21.613Z,9.63
2023-07-28T04:12:49.468Z,9.73
2023-07-28T04:15:17.555Z,10.50
2023-07-28T04:17:46.930Z,8.60
2023-07-28T04:20:15.210Z,9.40
2023-07-28T04:22:43.282Z,8.50
2023-07-28T04:25:12.056Z,9.93
2023-07-28T04:27:44.064Z,8.73
2023-07-28T04:30:12.993Z,9.70
2023-07-28T04:32:41.306Z,9.73
2023-07-28T04:35:18.193Z,8.70
2023-07-28T04:37:55.942Z,7.80
2023-07-28T04:40:37.979Z,10.70
2023-07-28T04:43:05.862Z,8.00
2023-07-28T04:45:34.024Z,8.27
2023-07-28T04:48:07.453Z,8.40
2023-07-28T04:50:37.591Z,8.60
2023-07-28T04:53:14.711Z,9.50
2023-07-28T04:56:04.369Z,8.10
2023-07-28T04:58:32.482Z,9.33
2023-07-28T05:01:03.673Z,8.97
2023-07-28T05:03:33.084Z,10.30
2023-07-28T05:06:19.336Z,9.10
2023-07-28T05:08:47.295Z,8.83
2023-07-28T05:11:20.272Z,8.03
2023-07-28T05:13:48.214Z,8.23
2023-07-28T05:16:16.287Z,9.20
2023-07-28T05:19:02.960Z,8.93
2023-07-28T05:21:52.496Z,7.87
2023-07-28T05:24:24.766Z,8.57
2023-07-28T05:26:52.754Z,10.03
2023-07-28T05:29:21.062Z,7.60
2023-07-28T05:31:49.861Z,7.47
2023-07-28T05:34:34.085Z,8.83
2023-07-28T05:37:05.479Z,7.53
2023-07-28T05:39:35.466Z,8.87
2023-07-28T05:42:03.528Z,7.20
2023-07-28T05:44:32.500Z,6.70
2023-07-28T05:47:00.393Z,6.23
2023-07-28T05:49:29.191Z,7.93
2023-07-28T05:51:57.269Z,8.33
2023-07-28T05:54:27.009Z,5.90
2023-07-28T05:56:57.106Z,11.70
2023-07-28T05:59:25.020Z,7.33
2023-07-28T06:01:52.939Z,7.27
2023-07-28T06:04:35.865Z,9.50
2023-07-28T06:07:06.676Z,11.53
2023-07-28T06:09:36.839Z,8.10
2023-07-28T06:12:05.241Z,7.93
2023-07-28T06:14:35.411Z,8.57
2023-07-28T06:17:06.076Z,7.90
2023-07-28T06:19:35.609Z,8.47
2023-07-28T06:22:03.794Z,8.20
2023-07-28T06:24:33.599Z,8.43
2023-07-28T06:27:08.495Z,10.93
2023-07-28T06:29:38.466Z,8.27
2023-07-28T06:32:07.118Z,8.37
2023-07-28T06:34:35.449Z,9.13
2023-07-28T06:37:03.528Z,9.03
2023-07-28T06:39:31.791Z,8.10
2023-07-28T06:41:59.723Z,8.40
2023-07-28T06:44:30.315Z,9.27
2023-07-28T06:46:58.271Z,8.77
2023-07-28T06:49:26.305Z,8.57
2023-07-28T06:51:54.118Z,10.00
2023-07-28T06:54:22.066Z,9.50
2023-07-28T06:56:50.016Z,8.43
2023-07-28T06:59:21.876Z,7.70
2023-07-28T07:01:51.994Z,9.33
2023-07-28T07:04:20.662Z,7.23
2023-07-28T07:06:48.801Z,6.50
2023-07-28T07:09:16.792Z,7.97
2023-07-28T07:11:44.830Z,7.00
2023-07-28T07:14:13.149Z,5.80
2023-07-28T07:16:41.177Z,5.27
2023-07-28T07:19:10.830Z,5.47
2023-07-28T07:21:38.927Z,4.60
2023-07-28T07:24:07.385Z,4.93
2023-07-28T07:26:35.584Z,6.47
2023-07-28T07:29:03.970Z,5.03
2023-07-28T07:31:31.937Z,4.40
2023-07-28T07:33:59.881Z,3.83
2023-07-28T07:36:29.284Z,8.27
2023-07-28T07:38:57.184Z,5.23
2023-07-28T07:41:25.527Z,3.60
2023-07-28T07:43:55.819Z,3.83
2023-07-28T07:46:25.011Z,3.53
2023-07-28T07:48:52.961Z,3.90
2023-07-28T07:51:21.000Z,4.67
2023-07-28T07:53:50.370Z,3.40
2023-07-28T07:56:18.272Z,2.93
2023-07-28T07:58:46.172Z,3.37
2023-07-28T08:01:14.189Z,6.53
2023-07-28T08:03:42.088Z,2.90
2023-07-28T08:06:12.506Z,2.13
2023-07-28T08:08:42.794Z,4.23
2023-07-28T08:11:13.408Z,7.30
2023-07-28T08:13:41.394Z,5.03
2023-07-28T08:16:09.943Z,3.33
2023-07-28T08:18:37.918Z,4.13
2023-07-28T08:21:05.815Z,1.70
2023-07-28T08:23:33.814Z,3.10
2023-07-28T08:26:01.966Z,4.73
2023-07-28T08:28:31.435Z,1.83
2023-07-28T08:31:00.127Z,6.27
2023-07-28T08:33:28.214Z,9.50
2023-07-28T08:35:56.225Z,12.10
2023-07-28T08:38:24.258Z,5.30
2023-07-28T08:40:52.089Z,2.40
2023-07-28T08:43:20.318Z,3.63
2023-07-28T08:45:49.552Z,3.27
2023-07-28T08:48:17.575Z,2.57
2023-07-28T08:50:45.528Z,1.83
2023-07-28T08:53:13.404Z,2.53
2023-07-28T08:55:41.336Z,3.10
2023-07-28T08:58:20.047Z,4.23
2023-07-28T09:00:51.000Z,2.57
2023-07-28T09:03:19.788Z,2.00
2023-07-28T09:05:48.178Z,1.50
2023-07-28T09:08:16.432Z,3.23
2023-07-28T09:10:45.557Z,3.57
2023-07-28T09:13:17.375Z,3.73
2023-07-28T09:15:46.045Z,2.17
2023-07-28T09:18:17.421Z,2.37
2023-07-28T09:20:45.578Z,1.60
2023-07-28T09:23:16.086Z,2.13
2023-07-28T09:25:43.922Z,2.40
2023-07-28T09:28:12.641Z,1.80
2023-07-28T09:30:48.623Z,3.77
2023-07-28T09:33:31.040Z,3.17
2023-07-28T09:35:59.486Z,2.97
2023-07-28T09:38:30.055Z,4.13
2023-07-28T09:41:00.291Z,3.10
2023-07-28T09:43:28.430Z,4.23
2023-07-28T09:45:57.393Z,2.30
2023-07-28T09:48:26.821Z,1.53
2023-07-28T09:50:54.879Z,2.30
2023-07-28T09:53:23.109Z,2.17
2023-07-28T09:55:52.202Z,5.70
2023-07-28T09:58:20.090Z,2.73
2023-07-28T10:00:48.526Z,3.87
2023-07-28T10:03:16.620Z,3.97
2023-07-28T10:05:46.422Z,4.93
2023-07-28T10:08:14.453Z,6.37
2023-07-28T10:10:42.873Z,1.70
2023-07-28T10:13:21.387Z,2.93
2023-07-28T10:15:49.847Z,2.20
2023-07-28T10:18:17.831Z,5.50
2023-07-28T10:20:50.313Z,4.43
2023-07-28T10:23:19.683Z,4.33
2023-07-28T10:25:47.787Z,4.23
2023-07-28T10:28:30.186Z,5.57
2023-07-28T10:30:58.174Z,2.23
2023-07-28T10:33:31.246Z,4.70
2023-07-28T10:36:01.626Z,3.03
2023-07-28T10:38:35.571Z,4.13
2023-07-28T10:41:09.897Z,5.10
2023-07-28T10:43:39.487Z,2.80
2023-07-28T10:46:10.030Z,3.13
2023-07-28T10:48:40.503Z,3.47
2023-07-28T10:51:09.860Z,3.50
2023-07-28T10:53:37.814Z,5.90
2023-07-28T10:56:08.569Z,3.20
2023-07-28T10:58:37.712Z,2.90
2023-07-28T11:01:05.933Z,5.03
2023-07-28T11:03:37.416Z,5.63
2023-07-28T11:06:07.217Z,7.93
2023-07-28T11:08:37.341Z,3.73
2023-07-28T11:11:07.988Z,13.10
2023-07-28T11:13:40.858Z,5.40
2023-07-28T11:16:11.694Z,3.03
2023-07-28T11:18:39.898Z,4.30
2023-07-28T11:21:07.919Z,4.13
2023-07-28T11:23:37.172Z,9.57
2023-07-28T11:26:05.297Z,13.23
2023-07-28T11:28:34.253Z,5.90
2023-07-28T11:31:02.265Z,5.07
2023-07-28T11:33:30.328Z,7.43
2023-07-28T11:35:58.792Z,4.00
2023-07-28T11:38:27.184Z,3.77
2023-07-28T11:40:56.869Z,4.23
2023-07-28T11:43:26.407Z,4.33
2023-07-28T11:45:54.534Z,6.83
2023-07-28T11:48:22.538Z,3.70
2023-07-28T11:50:54.386Z,5.73
2023-07-28T11:53:22.783Z,3.20
2023-07-28T11:55:50.659Z,3.30
2023-07-28T11:58:24.173Z,3.17
2023-07-28T12:00:52.305Z,3.90
2023-07-28T12:03:21.246Z,5.27
2023-07-28T12:08:38.888Z,2.83
2023-07-28T12:19:11.485Z,2.53
2023-07-28T12:21:39.654Z,4.87
2023-07-28T12:24:08.353Z,2.00
2023-07-28T12:26:39.751Z,2.67
2023-07-28T12:29:10.842Z,2.43
2023-07-28T12:34:10.752Z,2.30
2023-07-28T12:41:41.811Z,2.43
2023-07-28T12:44:14.976Z,1.80
2023-07-28T12:46:44.554Z,2.30
2023-07-28T12:49:21.479Z,2.33
2023-07-28T12:54:20.854Z,2.07
2023-07-28T13:01:02.495Z,2.20
2023-07-28T13:02:26.913Z,1.93
2023-07-28T13:04:54.928Z,3.23
2023-07-28T13:09:53.912Z,2.27
2023-07-28T13:14:54.002Z,2.27
2023-07-28T13:17:21.984Z,2.87
2023-07-28T13:19:50.161Z,1.70
2023-07-28T13:22:18.585Z,3.20
2023-07-28T13:24:46.498Z,2.30
2023-07-28T13:27:14.392Z,2.00
2023-07-28T13:29:42.257Z,2.20
2023-07-28T13:32:19.235Z,1.87
2023-07-28T13:34:47.192Z,2.53
2023-07-28T13:37:15.171Z,2.97
2023-07-28T13:39:44.139Z,2.80
2023-07-28T13:42:13.113Z,2.73
2023-07-28T13:44:47.124Z,2.20
2023-07-28T13:47:26.927Z,2.90
2023-07-28T13:49:54.929Z,2.37
2023-07-28T13:52:23.089Z,2.60
2023-07-28T13:57:22.007Z,2.30
2023-07-28T13:59:50.516Z,3.27
2023-07-28T14:02:19.349Z,3.40
2023-07-28T14:04:48.674Z,2.40
2023-07-28T14:07:16.643Z,2.67
2023-07-28T14:09:44.467Z,2.77
2023-07-28T14:12:12.380Z,2.20
2023-07-28T14:14:40.284Z,3.57
2023-07-28T14:17:08.217Z,2.10
2023-07-28T14:19:36.180Z,2.43
2023-07-28T14:22:05.806Z,2.53
2023-07-28T14:24:33.642Z,2.40
2023-07-28T14:27:01.482Z,2.43
2023-07-28T14:29:29.588Z,2.40
2023-07-28T14:31:57.660Z,2.67
2023-07-28T14:34:25.607Z,2.43
2023-07-28T14:36:53.621Z,2.07
2023-07-28T14:39:22.896Z,2.27
2023-07-28T14:41:50.808Z,2.13
2023-07-28T14:44:18.618Z,2.13
2023-07-28T14:46:47.503Z,2.00
2023-07-28T14:49:15.407Z,2.83
2023-07-28T14:51:43.391Z,2.00
2023-07-28T14:54:11.214Z,4.23
2023-07-28T14:56:40.554Z,2.10
2023-07-28T14:59:08.348Z,1.97
2023-07-28T15:01:36.408Z,1.63
2023-07-28T15:04:05.416Z,1.97
2023-07-28T15:06:33.421Z,1.83
2023-07-28T15:09:01.315Z,1.87
2023-07-28T15:11:29.199Z,1.60
2023-07-28T15:13:58.475Z,1.70
2023-07-28T15:16:26.465Z,2.43
2023-07-28T15:18:55.288Z,2.47
2023-07-28T15:21:24.177Z,1.80
2023-07-28T15:23:55.629Z,1.77
2023-07-28T15:26:23.597Z,1.87
2023-07-28T15:28:51.481Z,2.00
2023-07-28T15:31:20.782Z,3.07
2023-07-28T15:33:48.720Z,3.73
2023-07-28T15:36:16.832Z,1.90
2023-07-28T15:38:44.771Z,2.00
2023-07-28T15:41:13.163Z,2.90
2023-07-28T15:43:41.049Z,2.23
2023-07-28T15:46:09.029Z,2.03
2023-07-28T15:48:39.273Z,1.80
2023-07-28T15:51:07.263Z,2.00
2023-07-28T15:53:35.233Z,2.37
2023-07-28T15:56:03.215Z,2.40
2023-07-28T15:58:31.169Z,3.17
2023-07-28T16:00:59.092Z,3.33
2023-07-28T16:03:27.155Z,2.33
2023-07-28T16:05:57.196Z,2.20
2023-07-28T16:08:25.207Z,2.33
2023-07-28T16:10:53.159Z,3.33
2023-07-28T16:13:22.325Z,2.67
2023-07-28T16:15:50.421Z,3.50
2023-07-28T16:18:18.384Z,4.13
2023-07-28T16:20:46.286Z,2.20
2023-07-28T16:23:16.063Z,4.40
2023-07-28T16:25:48.187Z,2.17
2023-07-28T16:28:16.300Z,2.77
2023-07-28T16:30:47.000Z,3.23
2023-07-28T16:33:15.224Z,3.30
2023-07-28T16:35:43.202Z,3.20
2023-07-28T16:38:11.143Z,3.70
2023-07-28T16:40:40.382Z,3.33
2023-07-28T16:43:08.332Z,3.47
2023-07-28T16:45:36.766Z,3.90
2023-07-28T16:48:05.137Z,3.80
2023-07-28T16:50:33.515Z,4.97
2023-07-28T16:53:01.481Z,4.30
2023-07-28T16:55:29.442Z,3.90
2023-07-28T16:57:58.642Z,3.80
2023-07-28T17:00:26.754Z,5.10
2023-07-28T17:02:55.019Z,4.97
2023-07-28T17:05:23.432Z,4.17
2023-07-28T17:07:51.266Z,4.60
2023-07-28T17:10:19.353Z,4.70
2023-07-28T17:12:48.247Z,5.33
2023-07-28T17:15:29.972Z,5.03
2023-07-28T17:18:02.535Z,4.53
2023-07-28T17:20:31.543Z,5.17
2023-07-28T17:22:59.413Z,5.63
2023-07-28T17:25:27.364Z,4.70
2023-07-28T17:27:55.257Z,5.20
2023-07-28T17:30:24.564Z,5.50
2023-07-28T17:32:52.559Z,5.33
2023-07-28T17:35:20.458Z,5.57
2023-07-28T17:37:50.485Z,5.77
2023-07-28T17:40:18.486Z,5.93
2023-07-28T17:42:46.685Z,6.13
2023-07-28T17:45:14.885Z,5.20
2023-07-28T17:47:44.612Z,5.93
2023-07-28T17:50:14.602Z,4.77
2023-07-28T17:52:42.573Z,4.60
2023-07-28T17:55:11.721Z,5.23
2023-07-28T17:57:39.536Z,6.03
2023-07-28T18:00:09.189Z,4.50
2023-07-28T18:02:39.345Z,5.50
2023-07-28T18:05:12.076Z,5.40
2023-07-28T18:07:40.043Z,5.90
2023-07-28T18:10:08.401Z,5.23
2023-07-28T18:12:36.410Z,5.13
2023-07-28T18:15:04.515Z,4.70
2023-07-28T18:17:32.682Z,4.77
2023-07-28T18:20:00.628Z,5.50
2023-07-28T18:22:29.863Z,7.13
2023-07-28T18:24:57.732Z,5.57
2023-07-28T18:27:26.055Z,5.00
2023-07-28T18:29:54.143Z,5.97
2023-07-28T18:32:22.139Z,6.97
2023-07-28T18:34:52.220Z,6.00
2023-07-28T18:37:21.024Z,5.47
2023-07-28T18:39:50.377Z,7.30
2023-07-28T18:42:18.401Z,5.30
2023-07-28T18:44:46.273Z,6.03
2023-07-28T18:47:14.119Z,5.10
2023-07-28T18:49:42.032Z,4.90
2023-07-28T18:52:10.078Z,5.00
2023-07-28T18:54:38.057Z,5.53
2023-07-28T18:57:07.645Z,5.87
2023-07-28T18:59:35.641Z,5.67
2023-07-28T19:02:03.727Z,5.30
2023-07-28T19:04:31.929Z,5.23
2023-07-28T19:06:59.834Z,5.37
2023-07-28T19:09:27.745Z,4.57
2023-07-28T19:11:55.682Z,4.90
2023-07-28T19:14:24.965Z,6.17
2023-07-28T19:16:52.806Z,5.40
2023-07-28T19:19:21.238Z,5.57
2023-07-28T19:21:51.545Z,5.73
2023-07-28T19:24:19.682Z,6.40
2023-07-28T19:26:47.615Z,5.77
2023-07-28T19:29:19.635Z,5.63
2023-07-28T19:31:49.315Z,6.20
2023-07-28T19:34:17.407Z,5.87
2023-07-28T19:36:45.221Z,6.67
2023-07-28T19:39:13.176Z,6.23
2023-07-28T19:41:41.027Z,6.27
2023-07-28T19:44:09.095Z,6.63
2023-07-28T19:46:37.064Z,7.10
2023-07-28T19:49:07.061Z,7.13
2023-07-28T19:51:35.216Z,7.80
2023-07-28T19:54:03.291Z,6.83
2023-07-28T19:56:31.442Z,7.30
2023-07-28T19:58:59.322Z,9.17
2023-07-28T20:01:31.387Z,7.40
2023-07-28T20:03:59.605Z,10.07
2023-07-28T20:06:28.899Z,8.40
2023-07-28T20:08:56.907Z,8.10
2023-07-28T20:11:24.708Z,8.90
2023-07-28T20:13:52.641Z,7.90
2023-07-28T20:16:20.652Z,7.70
2023-07-28T20:18:50.133Z,7.23
2023-07-28T20:21:18.471Z,7.33
2023-07-28T20:23:47.728Z,7.30
2023-07-28T20:26:15.714Z,6.83
2023-07-28T20:28:43.619Z,5.83
2023-07-28T20:31:11.499Z,6.33
2023-07-28T20:33:39.462Z,7.17
2023-07-28T20:36:07.412Z,7.07
2023-07-28T20:38:35.367Z,7.77
2023-07-28T20:41:04.746Z,8.43
2023-07-28T20:43:33.315Z,8.20
2023-07-28T20:46:01.317Z,8.33
2023-07-28T20:48:29.185Z,8.40
2023-07-28T20:50:57.138Z,7.03
2023-07-28T20:53:25.231Z,8.60
2023-07-28T20:55:53.440Z,7.87
2023-07-28T20:58:22.718Z,8.10
2023-07-28T21:00:50.793Z,10.07
2023-07-28T21:03:19.075Z,8.03
2023-07-28T21:05:47.308Z,9.63
2023-07-28T21:08:15.200Z,9.17
2023-07-28T21:10:43.159Z,10.03
2023-07-28T21:13:15.511Z,8.83
2023-07-28T21:15:45.167Z,7.67
2023-07-28T21:18:13.944Z,7.67
2023-07-28T21:20:41.930Z,7.77
2023-07-28T21:23:09.840Z,7.40
2023-07-28T21:25:39.031Z,11.77
2023-07-28T21:28:06.978Z,8.40
2023-07-28T21:30:35.122Z,8.60
2023-07-28T21:33:06.341Z,8.70
2023-07-28T21:35:34.954Z,9.23
2023-07-28T21:38:03.013Z,8.93
2023-07-28T21:40:30.981Z,6.80
2023-07-28T21:42:59.314Z,6.90
2023-07-28T21:45:27.340Z,7.40
2023-07-28T21:47:55.843Z,8.13
2023-07-28T21:50:25.237Z,7.63
2023-07-28T21:52:53.378Z,9.00
2023-07-28T21:55:21.302Z,8.30
2023-07-28T21:57:49.213Z,8.63
2023-07-28T22:00:17.173Z,7.97
2023-07-28T22:02:45.167Z,9.27
2023-07-28T22:05:13.229Z,8.67
2023-07-28T22:07:42.709Z,8.27
2023-07-28T22:10:11.352Z,8.57
2023-07-28T22:12:39.317Z,9.03
2023-07-28T22:15:08.689Z,10.00
2023-07-28T22:17:36.696Z,8.10
2023-07-28T22:20:05.446Z,9.03
2023-07-28T22:22:34.699Z,9.07
2023-07-28T22:25:04.001Z,9.47
2023-07-28T22:27:31.923Z,8.80
2023-07-28T22:29:59.956Z,7.80
2023-07-28T22:32:27.960Z,7.77
2023-07-28T22:34:56.507Z,8.17
2023-07-28T22:37:24.466Z,10.30
2023-07-28T22:39:52.278Z,8.40
2023-07-28T22:42:21.567Z,7.87
2023-07-28T22:44:49.402Z,7.67
2023-07-28T22:47:17.355Z,7.80
2023-07-28T22:49:45.294Z,7.43
2023-07-28T22:52:13.249Z,7.97
2023-07-28T22:54:42.225Z,8.37
2023-07-28T22:57:10.131Z,9.47
2023-07-28T22:59:40.170Z,9.07
2023-07-28T23:02:08.102Z,8.90
2023-07-28T23:04:36.196Z,7.90
2023-07-28T23:07:04.319Z,7.60
2023-07-28T23:09:32.210Z,8.97
2023-07-28T23:12:00.048Z,9.43
2023-07-28T23:14:28.030Z,8.50
2023-07-28T23:16:57.388Z,8.27
2023-07-28T23:19:25.308Z,8.30
2023-07-28T23:21:53.175Z,9.53
2023-07-28T23:24:21.133Z,8.37
2023-07-28T23:26:49.471Z,8.43
2023-07-28T23:29:18.077Z,8.83
2023-07-28T23:31:46.412Z,9.93
2023-07-28T23:34:15.661Z,10.20
2023-07-28T23:36:44.487Z,9.67
2023-07-28T23:39:12.460Z,9.33
2023-07-28T23:41:40.400Z,8.60
2023-07-28T23:44:08.340Z,9.40
2023-07-28T23:46:36.578Z,9.77
2023-07-28T23:49:04.667Z,9.93
2023-07-28T23:51:34.010Z,10.67
2023-07-28T23:54:01.912Z,10.20
2023-07-28T23:56:29.863Z,10.10
2023-07-28T23:58:57.818Z,10.43
